createdAt,value
2022-12-15T00:01:20.876Z,-1.72
2022-12-15T00:04:06.948Z,-1.73
2022-12-15T00:06:53.149Z,-1.63
2022-12-15T00:09:39.071Z,-1.86
2022-12-15T00:12:29.029Z,-1.85
2022-12-15T00:15:15.018Z,-1.94
2022-12-15T00:18:03.416Z,-1.46
2022-12-15T00:20:49.640Z,-1.58
2022-12-15T00:23:36.235Z,-1.74
2022-12-15T00:26:22.755Z,-1.74
2022-12-15T00:29:09.845Z,-1.70
2022-12-15T00:31:55.567Z,-1.81
2022-12-15T00:34:41.574Z,-1.87
2022-12-15T00:37:27.414Z,-1.88
2022-12-15T00:39:59.887Z,-2.37
2022-12-15T00:42:32.339Z,-2.10
2022-12-15T00:45:02.867Z,-2.52
2022-12-15T00:47:33.002Z,-2.42
2022-12-15T00:50:19.109Z,-2.40
2022-12-15T00:53:04.882Z,-2.00
2022-12-15T00:55:51.462Z,-2.33
2022-12-15T00:58:37.439Z,-2.58
2022-12-15T01:01:29.566Z,-2.30
2022-12-15T01:04:15.836Z,-2.30
2022-12-15T01:07:01.998Z,-1.94
2022-12-15T01:09:47.936Z,-2.32
2022-12-15T01:12:34.076Z,-2.35
2022-12-15T01:15:20.125Z,-2.59
2022-12-15T01:18:07.189Z,-2.51
2022-12-15T01:20:35.909Z,-2.50
2022-12-15T01:23:06.316Z,-2.31
2022-12-15T01:25:34.936Z,-2.12
2022-12-15T01:28:03.130Z,-1.94
2022-12-15T01:30:31.680Z,-2.37
2022-12-15T01:33:02.473Z,-2.15
2022-12-15T01:35:30.954Z,-2.64
2022-12-15T01:37:59.365Z,-2.37
2022-12-15T01:40:44.946Z,-2.50
2022-12-15T01:43:15.474Z,-2.12
2022-12-15T01:45:54.942Z,-2.00
2022-12-15T01:48:33.804Z,-2.08
2022-12-15T01:51:10.404Z,-2.68
2022-12-15T01:53:43.236Z,-2.81
2022-12-15T01:56:14.202Z,-2.67
2022-12-15T01:58:45.983Z,-2.59
2022-12-15T02:01:14.706Z,-2.40
2022-12-15T02:03:45.505Z,-2.21
2022-12-15T02:06:14.848Z,-2.54
2022-12-15T02:08:46.488Z,-2.80
2022-12-15T02:12:03.470Z,-2.86
2022-12-15T02:14:47.066Z,-3.04
2022-12-15T02:17:28.273Z,-3.16
2022-12-15T02:20:34.820Z,-3.02
2022-12-15T02:23:48.503Z,-3.38
2022-12-15T02:26:48.019Z,-3.20
2022-12-15T02:29:31.685Z,-3.36
2022-12-15T02:32:04.913Z,-3.62
2022-12-15T02:34:42.397Z,-3.45
2022-12-15T02:37:16.336Z,-3.69
2022-12-15T02:39:45.291Z,-3.13
2022-12-15T02:42:14.191Z,-2.97
2022-12-15T02:44:46.796Z,-3.25
2022-12-15T02:47:25.825Z,-3.56
2022-12-15T02:50:21.104Z,-3.63
2022-12-15T02:53:01.776Z,-3.56
2022-12-15T02:55:40.621Z,-3.52
2022-12-15T02:58:16.661Z,-3.30
2022-12-15T03:00:54.791Z,-3.23
2022-12-15T03:03:26.367Z,-3.48
2022-12-15T03:05:55.384Z,-3.74
2022-12-15T03:08:24.034Z,-3.51
2022-12-15T03:10:56.312Z,-3.71
2022-12-15T03:13:25.150Z,-3.54
2022-12-15T03:15:54.632Z,-3.56
2022-12-15T03:18:24.461Z,-3.59
2022-12-15T03:20:53.775Z,-3.65
2022-12-15T03:23:23.184Z,-3.88
2022-12-15T03:25:51.823Z,-3.56
2022-12-15T03:28:20.278Z,-3.15
2022-12-15T03:30:50.576Z,-3.31
2022-12-15T03:33:19.493Z,-3.84
2022-12-15T03:35:50.021Z,-3.94
2022-12-15T03:38:18.755Z,-3.72
2022-12-15T03:40:47.259Z,-3.85
2022-12-15T03:43:15.431Z,-3.39
2022-12-15T03:45:43.969Z,-3.43
2022-12-15T03:48:12.120Z,-3.43
2022-12-15T03:50:40.916Z,-4.03
2022-12-15T03:53:10.835Z,-4.07
2022-12-15T03:55:39.325Z,-3.84
2022-12-15T03:58:07.821Z,-3.69
2022-12-15T04:00:36.275Z,-3.72
2022-12-15T04:03:04.638Z,-4.07
2022-12-15T04:05:35.149Z,-3.96
2022-12-15T04:08:04.111Z,-3.93
2022-12-15T04:10:35.783Z,-3.69
2022-12-15T04:13:07.727Z,-3.79
2022-12-15T04:15:37.470Z,-3.84
2022-12-15T04:18:10.180Z,-4.10
2022-12-15T04:20:39.123Z,-4.00
2022-12-15T04:23:08.188Z,-4.05
2022-12-15T04:25:55.823Z,-3.93
2022-12-15T04:28:41.959Z,-3.49
2022-12-15T04:31:29.523Z,-3.59
2022-12-15T04:34:19.851Z,-3.70
2022-12-15T04:37:08.435Z,-3.36
2022-12-15T04:39:54.688Z,-3.67
2022-12-15T04:42:42.664Z,-3.37
2022-12-15T04:45:30.461Z,-3.80
2022-12-15T04:48:16.527Z,-3.83
2022-12-15T04:51:02.589Z,-3.40
2022-12-15T04:53:48.809Z,-4.08
2022-12-15T04:56:35.084Z,-3.85
2022-12-15T04:59:22.748Z,-3.48
2022-12-15T05:02:09.103Z,-3.32
2022-12-15T05:04:57.996Z,-3.32
2022-12-15T05:07:44.153Z,-3.37
2022-12-15T05:10:30.897Z,-2.73
2022-12-15T05:13:23.126Z,-3.45
2022-12-15T05:16:10.457Z,-3.52
2022-12-15T05:18:56.554Z,-3.60
2022-12-15T05:21:43.493Z,-3.57
2022-12-15T05:24:29.462Z,-3.46
2022-12-15T05:27:17.397Z,-3.99
2022-12-15T05:30:03.351Z,-3.87
2022-12-15T05:32:34.887Z,-3.89
2022-12-15T05:35:03.448Z,-3.37
2022-12-15T05:37:34.487Z,-3.61
2022-12-15T05:40:03.062Z,-4.12
2022-12-15T05:42:32.069Z,-4.41
2022-12-15T05:45:00.269Z,-3.68
2022-12-15T05:47:28.777Z,-3.38
2022-12-15T05:49:58.335Z,-3.02
2022-12-15T05:52:26.768Z,-3.66
2022-12-15T05:54:54.963Z,-3.71
2022-12-15T05:57:23.500Z,-3.76
2022-12-15T05:59:51.656Z,-3.95
2022-12-15T06:02:20.196Z,-4.15
2022-12-15T06:04:48.783Z,-4.04
2022-12-15T06:07:19.301Z,-3.67
2022-12-15T06:09:48.091Z,-3.71
2022-12-15T06:12:16.702Z,-3.96
2022-12-15T06:14:45.323Z,-4.23
2022-12-15T06:17:14.099Z,-4.57
2022-12-15T06:19:42.631Z,-4.47
2022-12-15T06:22:10.849Z,-3.86
2022-12-15T06:24:40.671Z,-3.95
2022-12-15T06:27:09.242Z,-4.49
2022-12-15T06:29:40.233Z,-4.38
2022-12-15T06:32:08.683Z,-4.89
2022-12-15T06:34:37.181Z,-4.13
2022-12-15T06:37:05.575Z,-4.77
2022-12-15T06:39:33.817Z,-4.11
2022-12-15T06:42:03.591Z,-4.17
2022-12-15T06:44:32.116Z,-4.20
2022-12-15T06:47:00.350Z,-4.31
2022-12-15T06:49:28.730Z,-4.65
2022-12-15T06:51:57.022Z,-4.58
2022-12-15T06:54:31.100Z,-4.78
2022-12-15T06:56:59.835Z,-4.70
2022-12-15T06:59:29.782Z,-4.08
2022-12-15T07:01:58.597Z,-4.04
2022-12-15T07:04:28.056Z,-4.00
2022-12-15T07:06:56.993Z,-4.20
2022-12-15T07:09:27.687Z,-4.93
2022-12-15T07:11:56.353Z,-4.87
2022-12-15T07:14:26.056Z,-5.07
2022-12-15T07:16:56.012Z,-4.53
2022-12-15T07:19:32.676Z,-4.14
2022-12-15T07:22:01.623Z,-4.69
2022-12-15T07:24:30.178Z,-4.10
2022-12-15T07:26:59.224Z,-4.14
2022-12-15T07:29:29.911Z,-3.86
2022-12-15T07:32:01.997Z,-3.70
2022-12-15T07:34:30.814Z,-4.71
2022-12-15T07:37:01.078Z,-4.82
2022-12-15T07:39:29.700Z,-4.90
2022-12-15T07:41:57.971Z,-4.12
2022-12-15T07:44:29.593Z,-4.14
2022-12-15T07:46:59.657Z,-3.81
2022-12-15T07:49:28.111Z,-4.10
2022-12-15T07:51:58.553Z,-3.67
2022-12-15T07:54:27.564Z,-3.63
2022-12-15T07:56:56.311Z,-3.91
2022-12-15T07:59:25.021Z,-3.98
2022-12-15T08:01:53.964Z,-3.67
2022-12-15T08:04:25.332Z,-3.85
2022-12-15T08:06:55.517Z,-3.21
2022-12-15T08:09:24.157Z,-4.19
2022-12-15T08:11:53.010Z,-3.72
2022-12-15T08:14:22.269Z,-4.25
2022-12-15T08:16:51.381Z,-4.34
2022-12-15T08:19:20.058Z,-4.21
2022-12-15T08:21:50.123Z,-4.75
2022-12-15T08:24:19.717Z,-4.21
2022-12-15T08:26:50.011Z,-5.03
2022-12-15T08:32:08.079Z,-4.74
2022-12-15T08:34:36.998Z,-4.37
2022-12-15T08:37:06.946Z,-3.56
2022-12-15T08:39:35.371Z,-3.52
2022-12-15T08:42:03.618Z,-3.50
2022-12-15T08:44:32.079Z,-4.09
2022-12-15T08:47:00.827Z,-3.50
2022-12-15T08:49:29.469Z,-3.69
2022-12-15T08:51:57.591Z,-2.83
2022-12-15T08:54:34.736Z,-3.59
2022-12-15T08:57:03.274Z,-3.56
2022-12-15T08:59:31.444Z,-3.28
2022-12-15T09:02:00.782Z,-2.91
2022-12-15T09:04:29.630Z,-3.88
2022-12-15T09:06:58.323Z,-3.25
2022-12-15T09:09:28.127Z,-3.01
2022-12-15T09:11:56.650Z,-3.46
2022-12-15T09:14:29.240Z,-2.87
2022-12-15T09:16:58.388Z,-3.49
2022-12-15T09:19:27.129Z,-3.20
2022-12-15T09:21:55.810Z,-2.20
2022-12-15T09:24:32.489Z,-2.53
2022-12-15T09:27:05.513Z,-2.61
2022-12-15T09:29:35.168Z,-2.63
2022-12-15T09:32:10.537Z,-2.78
2022-12-15T09:34:42.360Z,-3.28
2022-12-15T09:37:10.595Z,-2.30
2022-12-15T09:39:39.741Z,-3.28
2022-12-15T09:42:25.025Z,-2.82
2022-12-15T09:45:02.699Z,-2.89
2022-12-15T09:47:44.179Z,-2.97
2022-12-15T09:50:15.365Z,-2.45
2022-12-15T09:52:49.758Z,-2.49
2022-12-15T09:55:22.330Z,-2.66
2022-12-15T09:58:06.084Z,-3.11
2022-12-15T10:00:52.224Z,-2.82
2022-12-15T10:03:39.355Z,-2.66
2022-12-15T10:06:16.518Z,-3.16
2022-12-15T10:08:53.796Z,-2.70
2022-12-15T10:11:37.299Z,-3.08
2022-12-15T10:14:15.747Z,-2.67
2022-12-15T10:16:57.561Z,-2.73
2022-12-15T10:19:32.923Z,-2.26
2022-12-15T10:22:01.686Z,-1.84
2022-12-15T10:27:40.022Z,-2.59
2022-12-15T10:30:13.777Z,-2.53
2022-12-15T10:32:51.470Z,-2.10
2022-12-15T10:35:23.498Z,-2.05
2022-12-15T10:37:52.831Z,-2.04
2022-12-15T10:40:45.357Z,-2.16
2022-12-15T10:43:27.689Z,-2.44
2022-12-15T10:46:12.483Z,-2.84
2022-12-15T10:48:42.017Z,-1.86
2022-12-15T10:51:20.168Z,-2.42
2022-12-15T10:53:51.043Z,-2.78
2022-12-15T10:56:32.432Z,-3.26
2022-12-15T10:59:25.834Z,-2.79
2022-12-15T11:01:56.195Z,-2.53
2022-12-15T11:04:29.195Z,-2.67
2022-12-15T11:06:58.887Z,-2.34
2022-12-15T11:09:33.154Z,-2.29
2022-12-15T11:12:19.559Z,-2.61
2022-12-15T11:14:49.944Z,-1.95
2022-12-15T11:17:22.940Z,-2.91
2022-12-15T11:20:03.061Z,-2.91
2022-12-15T11:22:41.057Z,-2.53
2022-12-15T11:25:21.803Z,-3.13
2022-12-15T11:27:57.480Z,-3.33
2022-12-15T11:30:31.717Z,-2.78
2022-12-15T11:33:03.306Z,-2.95
2022-12-15T11:35:54.653Z,-2.53
2022-12-15T11:38:34.027Z,-2.79
2022-12-15T11:41:10.237Z,-3.27
2022-12-15T11:44:06.627Z,-3.15
2022-12-15T11:46:44.247Z,-2.70
2022-12-15T11:53:05.165Z,-3.21
2022-12-15T11:55:43.180Z,-4.09
2022-12-15T11:58:37.593Z,-3.27
2022-12-15T12:01:13.422Z,-3.00
2022-12-15T12:03:55.466Z,-3.60
2022-12-15T12:06:36.065Z,-3.28
2022-12-15T12:09:29.187Z,-2.82
2022-12-15T12:12:06.276Z,-3.35
2022-12-15T12:14:45.642Z,-3.86
2022-12-15T12:17:28.623Z,-3.32
2022-12-15T12:20:05.014Z,-3.18
2022-12-15T12:22:44.037Z,-3.16
2022-12-15T12:25:20.239Z,-3.49
2022-12-15T12:27:54.280Z,-3.47
2022-12-15T12:30:26.044Z,-3.31
2022-12-15T12:33:01.483Z,-3.44
2022-12-15T12:35:38.906Z,-3.42
2022-12-15T12:38:11.389Z,-3.62
2022-12-15T12:40:53.427Z,-3.58
2022-12-15T12:43:33.256Z,-3.74
2022-12-15T12:46:08.445Z,-3.91
2022-12-15T12:48:40.366Z,-3.61
2022-12-15T12:51:20.490Z,-3.58
2022-12-15T12:53:51.407Z,-3.25
2022-12-15T12:56:37.791Z,-3.71
2022-12-15T12:59:27.987Z,-3.76
2022-12-15T13:01:57.617Z,-3.80
2022-12-15T13:04:41.973Z,-3.60
2022-12-15T13:07:32.135Z,-3.53
2022-12-15T13:10:15.334Z,-3.45
2022-12-15T13:12:51.671Z,-3.77
2022-12-15T13:15:35.215Z,-3.66
2022-12-15T13:18:11.945Z,-3.85
2022-12-15T13:20:44.082Z,-3.78
2022-12-15T13:23:41.478Z,-3.59
2022-12-15T13:26:16.400Z,-3.91
2022-12-15T13:28:53.041Z,-3.88
2022-12-15T13:31:56.630Z,-3.61
2022-12-15T13:34:27.577Z,-3.95
2022-12-15T13:37:01.267Z,-3.71
2022-12-15T13:40:01.187Z,-3.71
2022-12-15T13:42:53.126Z,-3.96
2022-12-15T13:45:50.714Z,-4.12
2022-12-15T13:48:36.897Z,-3.81
2022-12-15T13:51:38.713Z,-3.95
2022-12-15T13:54:16.726Z,-3.85
2022-12-15T13:56:59.934Z,-3.99
2022-12-15T13:59:38.373Z,-3.92
2022-12-15T14:02:25.804Z,-3.87
2022-12-15T14:05:12.959Z,-4.05
2022-12-15T14:07:45.408Z,-3.89
2022-12-15T14:10:22.583Z,-4.11
2022-12-15T14:12:53.066Z,-4.23
2022-12-15T14:15:29.179Z,-4.20
2022-12-15T14:17:59.471Z,-4.04
2022-12-15T14:20:29.852Z,-4.42
2022-12-15T14:22:59.182Z,-4.25
2022-12-15T14:25:30.768Z,-4.20
2022-12-15T14:27:59.636Z,-4.14
2022-12-15T14:30:33.071Z,-4.07
2022-12-15T14:33:05.321Z,-4.12
2022-12-15T14:35:40.247Z,-4.16
2022-12-15T14:38:13.255Z,-4.09
2022-12-15T14:40:43.289Z,-4.17
2022-12-15T14:43:24.469Z,-4.09
2022-12-15T14:46:06.445Z,-4.24
2022-12-15T14:48:42.317Z,-4.28
2022-12-15T14:54:00.860Z,-4.25
2022-12-15T14:56:31.682Z,-4.41
2022-12-15T14:59:04.870Z,-4.56
2022-12-15T15:01:41.151Z,-4.71
2022-12-15T15:04:26.033Z,-4.52
2022-12-15T15:07:01.635Z,-4.91
2022-12-15T15:09:34.861Z,-4.63
2022-12-15T15:12:24.673Z,-4.62
2022-12-15T15:15:00.559Z,-4.93
2022-12-15T15:17:45.825Z,-4.82
2022-12-15T15:20:21.644Z,-4.81
2022-12-15T15:23:05.548Z,-5.65
2022-12-15T15:25:40.184Z,-5.46
2022-12-15T15:28:21.598Z,-5.89
2022-12-15T15:30:56.114Z,-5.44
2022-12-15T15:33:28.817Z,-5.43
2022-12-15T15:35:59.690Z,-5.44
2022-12-15T15:38:32.531Z,-5.45
2022-12-15T15:41:03.043Z,-5.16
2022-12-15T15:43:31.639Z,-5.49
2022-12-15T15:46:03.773Z,-5.87
2022-12-15T15:48:37.850Z,-6.16
2022-12-15T15:51:07.547Z,-5.64
2022-12-15T15:53:36.946Z,-5.48
2022-12-15T15:56:08.316Z,-5.57
2022-12-15T15:58:37.189Z,-6.10
2022-12-15T16:01:12.706Z,-5.88
2022-12-15T16:03:43.866Z,-5.37
2022-12-15T16:06:18.428Z,-5.94
2022-12-15T16:08:52.531Z,-5.89
2022-12-15T16:11:25.419Z,-5.80
2022-12-15T16:14:03.984Z,-5.68
2022-12-15T16:16:35.991Z,-5.71
2022-12-15T16:19:16.080Z,-5.27
2022-12-15T16:21:46.591Z,-5.85
2022-12-15T16:24:18.931Z,-5.52
2022-12-15T16:26:52.133Z,-5.49
2022-12-15T16:29:22.214Z,-5.42
2022-12-15T16:31:53.759Z,-5.40
2022-12-15T16:34:24.897Z,-5.22
2022-12-15T16:36:53.726Z,-5.30
2022-12-15T16:39:37.897Z,-5.44
2022-12-15T16:42:11.128Z,-5.25
2022-12-15T16:44:39.651Z,-5.56
2022-12-15T16:47:07.846Z,-5.79
2022-12-15T16:49:40.252Z,-5.48
2022-12-15T16:52:15.423Z,-5.47
2022-12-15T16:54:46.532Z,-5.30
2022-12-15T16:57:16.109Z,-5.23
2022-12-15T16:59:47.535Z,-5.27
2022-12-15T17:02:29.290Z,-5.09
2022-12-15T17:04:59.546Z,-5.10
2022-12-15T17:07:29.757Z,-4.76
2022-12-15T17:09:58.501Z,-5.08
2022-12-15T17:12:27.181Z,-4.83
2022-12-15T17:14:57.639Z,-4.88
2022-12-15T17:17:26.899Z,-4.88
2022-12-15T17:20:28.035Z,-5.01
2022-12-15T17:22:47.063Z,-4.63
2022-12-15T17:25:51.960Z,-4.78
2022-12-15T17:28:17.149Z,-4.64
2022-12-15T17:30:46.600Z,-4.88
2022-12-15T17:33:20.674Z,-4.55
2022-12-15T17:36:03.064Z,-4.42
2022-12-15T17:38:35.172Z,-4.44
2022-12-15T17:41:03.739Z,-4.74
2022-12-15T17:43:35.955Z,-4.46
2022-12-15T17:46:05.264Z,-4.62
2022-12-15T17:48:33.985Z,-4.52
2022-12-15T17:51:02.599Z,-4.38
2022-12-15T17:53:34.856Z,-4.27
2022-12-15T17:56:03.670Z,-4.24
2022-12-15T17:58:32.357Z,-4.34
2022-12-15T18:01:03.988Z,-3.92
2022-12-15T18:03:35.887Z,-3.89
2022-12-15T18:06:05.544Z,-4.37
2022-12-15T18:08:36.378Z,-4.15
2022-12-15T18:11:05.163Z,-4.08
2022-12-15T18:13:35.820Z,-4.03
2022-12-15T18:16:04.798Z,-4.22
2022-12-15T18:18:35.072Z,-4.28
2022-12-15T18:21:12.377Z,-3.98
2022-12-15T18:23:47.755Z,-4.26
2022-12-15T18:26:16.648Z,-4.36
2022-12-15T18:29:30.144Z,-3.98
2022-12-15T18:32:21.934Z,-4.52
2022-12-15T18:34:56.819Z,-3.84
2022-12-15T18:37:28.319Z,-4.15
2022-12-15T18:40:04.845Z,-3.80
2022-12-15T18:42:34.698Z,-3.72
2022-12-15T18:45:05.246Z,-3.59
2022-12-15T18:47:34.250Z,-4.09
2022-12-15T18:50:02.787Z,-3.71
2022-12-15T18:52:34.812Z,-3.72
2022-12-15T18:55:05.609Z,-3.84
2022-12-15T18:57:36.932Z,-3.91
2022-12-15T19:00:17.765Z,-3.52
2022-12-15T19:02:50.137Z,-3.93
2022-12-15T19:05:32.894Z,-3.53
2022-12-15T19:08:05.503Z,-3.53
2022-12-15T19:10:36.037Z,-3.63
2022-12-15T19:13:05.343Z,-3.60
2022-12-15T19:15:33.878Z,-3.73
2022-12-15T19:18:19.451Z,-3.72
2022-12-15T19:21:05.493Z,-3.23
2022-12-15T19:23:34.957Z,-3.56
2022-12-15T19:26:09.002Z,-3.95
2022-12-15T19:28:39.410Z,-3.70
2022-12-15T19:31:09.328Z,-3.46
2022-12-15T19:33:37.932Z,-3.32
2022-12-15T19:36:11.389Z,-3.08
2022-12-15T19:38:39.976Z,-4.32
2022-12-15T19:41:13.185Z,-3.44
2022-12-15T19:43:42.456Z,-3.48
2022-12-15T19:46:16.545Z,-3.56
2022-12-15T19:48:45.201Z,-3.23
2022-12-15T19:51:16.379Z,-3.43
2022-12-15T19:53:46.949Z,-3.07
2022-12-15T19:56:20.966Z,-3.42
2022-12-15T19:58:51.678Z,-3.50
2022-12-15T20:01:23.527Z,-3.68
2022-12-15T20:03:54.295Z,-2.91
2022-12-15T20:06:25.688Z,-3.47
2022-12-15T20:08:57.048Z,-3.46
2022-12-15T20:11:29.860Z,-3.57
2022-12-15T20:14:01.370Z,-3.93
2022-12-15T20:16:30.215Z,-3.45
2022-12-15T20:18:59.306Z,-3.19
2022-12-15T20:21:36.863Z,-3.27
2022-12-15T20:24:09.266Z,-3.25
2022-12-15T20:26:40.650Z,-3.36
2022-12-15T20:29:22.347Z,-3.18
2022-12-15T20:31:51.004Z,-3.39
2022-12-15T20:34:19.976Z,-3.51
2022-12-15T20:36:48.623Z,-2.99
2022-12-15T20:39:21.782Z,-2.80
2022-12-15T20:41:51.832Z,-3.63
2022-12-15T20:44:20.894Z,-3.16
2022-12-15T20:46:49.399Z,-3.04
2022-12-15T20:49:18.633Z,-2.83
2022-12-15T20:51:48.152Z,-2.92
2022-12-15T20:54:19.299Z,-3.63
2022-12-15T20:56:48.863Z,-3.09
2022-12-15T20:59:19.349Z,-3.39
2022-12-15T21:01:48.274Z,-3.20
2022-12-15T21:04:26.075Z,-3.41
2022-12-15T21:06:55.555Z,-3.16
2022-12-15T21:09:25.190Z,-2.63
2022-12-15T21:11:55.269Z,-3.13
2022-12-15T21:14:26.117Z,-3.45
2022-12-15T21:16:55.449Z,-3.22
2022-12-15T21:19:24.886Z,-3.02
2022-12-15T21:24:56.955Z,-2.90
2022-12-15T21:27:36.552Z,-3.01
2022-12-15T21:30:41.073Z,-2.96
2022-12-15T21:33:11.887Z,-3.32
2022-12-15T21:35:41.875Z,-2.78
2022-12-15T21:38:50.379Z,-3.48
2022-12-15T21:41:23.476Z,-2.79
2022-12-15T21:43:52.149Z,-3.00
2022-12-15T21:46:27.882Z,-2.72
2022-12-15T21:49:14.609Z,-2.89
2022-12-15T21:51:45.344Z,-2.79
2022-12-15T21:54:22.849Z,-2.60
2022-12-15T21:56:54.741Z,-2.79
2022-12-15T21:59:25.620Z,-3.16
2022-12-15T22:01:56.307Z,-2.96
2022-12-15T22:04:29.466Z,-2.74
2022-12-15T22:06:58.000Z,-2.50
2022-12-15T22:09:26.503Z,-2.70
2022-12-15T22:11:55.873Z,-2.27
2022-12-15T22:14:27.369Z,-2.54
2022-12-15T22:16:57.894Z,-2.88
2022-12-15T22:19:26.556Z,-2.58
2022-12-15T22:21:55.322Z,-2.54
2022-12-15T22:24:23.820Z,-2.66
2022-12-15T22:26:52.241Z,-2.47
2022-12-15T22:29:23.157Z,-2.71
2022-12-15T22:31:52.030Z,-2.92
2022-12-15T22:34:23.483Z,-2.72
2022-12-15T22:36:52.651Z,-2.28
2022-12-15T22:39:24.532Z,-2.14
2022-12-15T22:41:53.743Z,-1.91
2022-12-15T22:44:25.163Z,-2.84
2022-12-15T22:46:56.884Z,-2.76
2022-12-15T22:49:31.910Z,-2.79
2022-12-15T22:52:00.397Z,-2.56
2022-12-15T22:54:30.397Z,-3.00
2022-12-15T22:57:01.826Z,-2.61
2022-12-15T22:59:34.579Z,-2.85
2022-12-15T23:02:03.848Z,-2.79
2022-12-15T23:04:34.022Z,-2.51
2022-12-15T23:07:04.855Z,-2.57
2022-12-15T23:09:33.371Z,-2.40
2022-12-15T23:12:00.744Z,-2.17
2022-12-15T23:14:43.049Z,-2.31
2022-12-15T23:17:12.681Z,-2.48
2022-12-15T23:19:45.835Z,-2.48
2022-12-15T23:22:14.835Z,-2.33
2022-12-15T23:24:43.417Z,-1.84
2022-12-15T23:27:12.436Z,-2.47
2022-12-15T23:29:41.127Z,-2.54
2022-12-15T23:32:09.291Z,-2.20
2022-12-15T23:34:37.742Z,-1.91
2022-12-15T23:37:07.308Z,-2.23
2022-12-15T23:39:36.852Z,-1.98
2022-12-15T23:42:06.112Z,-2.25
2022-12-15T23:44:34.666Z,-1.40
2022-12-15T23:47:02.939Z,-2.37
2022-12-15T23:49:33.407Z,-2.03
2022-12-15T23:52:01.968Z,-2.42
2022-12-15T23:54:31.585Z,-1.77
2022-12-15T23:56:59.923Z,-2.18
2022-12-15T23:59:28.349Z,-2.20
